createdAt,value
2018-07-31T00:00:03.755Z,22.48
2018-07-31T00:02:31.823Z,22.54
2018-07-31T00:04:59.890Z,22.47
2018-07-31T00:07:27.963Z,22.41
2018-07-31T00:09:56.024Z,22.52
2018-07-31T00:12:24.093Z,22.46
2018-07-31T00:14:52.139Z,22.30
2018-07-31T00:17:20.209Z,22.40
2018-07-31T00:19:48.291Z,22.22
2018-07-31T00:22:16.361Z,22.21
2018-07-31T00:24:44.422Z,22.03
2018-07-31T00:27:12.491Z,22.02
2018-07-31T00:29:40.554Z,22.03
2018-07-31T00:32:08.621Z,22.01
2018-07-31T00:34:36.695Z,22.10
2018-07-31T00:37:04.792Z,22.07
2018-07-31T00:39:39.207Z,21.98
2018-07-31T00:42:07.111Z,21.92
2018-07-31T00:44:35.282Z,21.90
2018-07-31T00:47:03.418Z,21.84
2018-07-31T00:49:31.463Z,21.94
2018-07-31T00:51:59.550Z,21.94
2018-07-31T00:54:27.614Z,21.84
2018-07-31T00:56:55.702Z,21.82
2018-07-31T00:59:23.778Z,21.95
2018-07-31T01:01:51.830Z,21.88
2018-07-31T01:04:19.919Z,21.67
2018-07-31T01:06:47.995Z,21.61
2018-07-31T01:09:16.075Z,21.60
2018-07-31T01:11:44.150Z,21.65
2018-07-31T01:14:12.215Z,21.60
2018-07-31T01:16:41.454Z,21.57
2018-07-31T01:19:10.456Z,21.42
2018-07-31T01:21:38.581Z,21.49
2018-07-31T01:24:06.882Z,21.45
2018-07-31T01:26:34.939Z,21.39
2018-07-31T01:29:03.167Z,21.45
2018-07-31T01:31:31.278Z,21.43
2018-07-31T01:33:59.404Z,21.53
2018-07-31T01:36:27.418Z,21.41
2018-07-31T01:38:55.494Z,21.19
2018-07-31T01:41:23.550Z,21.06
2018-07-31T01:43:51.638Z,21.00
2018-07-31T01:46:19.692Z,20.99
2018-07-31T01:48:47.751Z,21.02
2018-07-31T01:51:15.791Z,21.17
2018-07-31T01:53:43.858Z,21.25
2018-07-31T01:56:11.938Z,21.15
2018-07-31T01:58:40.015Z,20.97
2018-07-31T02:01:08.102Z,20.73
2018-07-31T02:03:36.190Z,20.74
2018-07-31T02:06:04.243Z,20.90
2018-07-31T02:08:32.297Z,20.89
2018-07-31T02:11:00.379Z,20.96
2018-07-31T02:13:28.791Z,20.88
2018-07-31T02:15:56.833Z,20.94
2018-07-31T02:18:24.891Z,20.92
2018-07-31T02:20:52.998Z,20.89
2018-07-31T02:23:21.036Z,20.93
2018-07-31T02:25:49.102Z,20.87
2018-07-31T02:28:17.230Z,20.87
2018-07-31T02:30:45.191Z,20.83
2018-07-31T02:33:13.234Z,20.73
2018-07-31T02:35:41.283Z,20.80
2018-07-31T02:38:09.349Z,20.97
2018-07-31T02:40:37.397Z,20.89
2018-07-31T02:43:05.508Z,20.78
2018-07-31T02:45:33.565Z,20.73
2018-07-31T02:48:01.637Z,20.76
2018-07-31T02:50:29.704Z,20.74
2018-07-31T02:52:57.784Z,20.78
2018-07-31T02:55:25.860Z,20.83
2018-07-31T02:57:53.934Z,20.70
2018-07-31T03:00:22.113Z,20.70
2018-07-31T03:02:50.173Z,20.70
2018-07-31T03:05:18.232Z,20.66
2018-07-31T03:07:46.277Z,20.62
2018-07-31T03:10:14.351Z,20.81
2018-07-31T03:12:42.403Z,20.48
2018-07-31T03:15:11.508Z,20.64
2018-07-31T03:17:39.783Z,20.58
2018-07-31T03:20:08.335Z,20.67
2018-07-31T03:22:36.363Z,20.59
2018-07-31T03:25:04.857Z,20.56
2018-07-31T03:27:32.909Z,20.57
2018-07-31T03:30:00.977Z,20.52
2018-07-31T03:32:29.059Z,20.46
2018-07-31T03:34:57.150Z,20.47
2018-07-31T03:37:25.238Z,20.41
2018-07-31T03:39:53.278Z,20.38
2018-07-31T03:42:21.330Z,20.29
2018-07-31T03:44:49.388Z,20.25
2018-07-31T03:47:17.436Z,20.15
2018-07-31T03:49:45.611Z,20.23
2018-07-31T03:52:13.672Z,20.07
2018-07-31T03:54:41.724Z,19.90
2018-07-31T03:57:09.912Z,19.73
2018-07-31T03:59:37.983Z,19.87
2018-07-31T04:02:06.032Z,19.75
2018-07-31T04:04:34.160Z,19.75
2018-07-31T04:07:02.198Z,19.73
2018-07-31T04:09:30.482Z,19.79
2018-07-31T04:11:58.603Z,19.93
2018-07-31T04:14:26.659Z,19.91
2018-07-31T04:16:54.745Z,19.81
2018-07-31T04:19:22.798Z,19.85
2018-07-31T04:21:50.831Z,19.76
2018-07-31T04:24:18.895Z,19.83
2018-07-31T04:26:46.960Z,19.87
2018-07-31T04:29:15.029Z,19.89
2018-07-31T04:31:43.118Z,19.81
2018-07-31T04:34:11.184Z,19.89
2018-07-31T04:36:39.307Z,19.89
2018-07-31T04:39:09.168Z,20.00
2018-07-31T04:41:37.240Z,20.12
2018-07-31T04:44:05.514Z,20.09
2018-07-31T04:46:33.588Z,20.11
2018-07-31T04:49:01.853Z,20.09
2018-07-31T04:51:30.006Z,20.11
2018-07-31T04:53:58.110Z,20.13
2018-07-31T04:56:26.184Z,20.16
2018-07-31T04:58:54.366Z,20.09
2018-07-31T05:01:22.425Z,20.18
2018-07-31T05:03:50.499Z,20.26
2018-07-31T05:06:18.610Z,20.33
2018-07-31T05:08:46.677Z,20.38
2018-07-31T05:11:14.752Z,20.49
2018-07-31T05:13:42.880Z,20.59
2018-07-31T05:16:11.055Z,20.57
2018-07-31T05:18:39.159Z,20.68
2018-07-31T05:21:07.231Z,20.75
2018-07-31T05:23:35.286Z,20.82
2018-07-31T05:26:03.378Z,20.89
2018-07-31T05:28:31.439Z,20.97
2018-07-31T05:30:59.579Z,21.06
2018-07-31T05:33:27.622Z,21.19
2018-07-31T05:35:55.869Z,21.36
2018-07-31T05:38:24.039Z,21.53
2018-07-31T05:40:52.156Z,21.66
2018-07-31T05:43:20.246Z,21.95
2018-07-31T05:45:48.294Z,22.24
2018-07-31T05:48:16.537Z,22.45
2018-07-31T05:50:44.586Z,22.70
2018-07-31T05:53:12.639Z,22.83
2018-07-31T05:55:40.704Z,23.07
2018-07-31T05:58:08.749Z,23.23
2018-07-31T06:00:36.853Z,23.39
2018-07-31T06:03:04.934Z,23.62
2018-07-31T06:05:32.991Z,23.74
2018-07-31T06:08:01.147Z,23.83
2018-07-31T06:10:29.218Z,23.94
2018-07-31T06:12:57.316Z,24.08
2018-07-31T06:15:25.380Z,24.20
2018-07-31T06:17:53.458Z,24.37
2018-07-31T06:20:21.520Z,24.62
2018-07-31T06:22:49.575Z,24.73
2018-07-31T06:25:17.647Z,24.76
2018-07-31T06:27:45.874Z,24.96
2018-07-31T06:30:15.046Z,25.01
2018-07-31T06:32:43.561Z,25.16
2018-07-31T06:35:11.638Z,25.38
2018-07-31T06:37:39.782Z,25.48
2018-07-31T06:40:08.256Z,25.60
2018-07-31T06:42:36.400Z,25.69
2018-07-31T06:45:04.830Z,25.69
2018-07-31T06:47:32.914Z,25.89
2018-07-31T06:50:01.012Z,26.01
2018-07-31T06:52:29.068Z,26.06
2018-07-31T06:54:57.160Z,25.98
2018-07-31T06:57:25.216Z,26.11
2018-07-31T06:59:53.312Z,26.55
2018-07-31T07:02:21.370Z,26.60
2018-07-31T07:04:49.454Z,26.55
2018-07-31T07:07:17.530Z,26.63
2018-07-31T07:09:45.627Z,26.82
2018-07-31T07:12:13.718Z,26.93
2018-07-31T07:14:42.370Z,26.82
2018-07-31T07:17:10.421Z,26.88
2018-07-31T07:19:38.535Z,27.06
2018-07-31T07:22:06.653Z,27.23
2018-07-31T07:24:34.690Z,27.33
2018-07-31T07:27:03.474Z,27.47
2018-07-31T07:29:31.538Z,27.54
2018-07-31T07:31:59.619Z,27.61
2018-07-31T07:34:28.665Z,27.64
2018-07-31T07:36:56.787Z,27.73
2018-07-31T07:39:24.850Z,27.87
2018-07-31T07:41:52.949Z,27.91
2018-07-31T07:44:21.039Z,28.05
2018-07-31T07:46:49.115Z,27.96
2018-07-31T07:49:17.274Z,28.01
2018-07-31T07:52:01.542Z,28.18
2018-07-31T07:54:29.602Z,28.28
2018-07-31T07:56:57.660Z,28.46
2018-07-31T07:59:26.630Z,28.41
2018-07-31T08:01:54.698Z,28.50
2018-07-31T08:04:22.776Z,28.49
2018-07-31T08:06:50.830Z,28.45
2018-07-31T08:09:18.924Z,28.56
2018-07-31T08:11:47.045Z,28.61
2018-07-31T08:14:15.095Z,28.59
2018-07-31T08:16:43.167Z,28.78
2018-07-31T08:19:11.210Z,28.98
2018-07-31T08:21:39.295Z,29.12
2018-07-31T08:24:07.334Z,29.27
2018-07-31T08:26:35.673Z,29.29
2018-07-31T08:29:03.894Z,29.41
2018-07-31T08:31:31.953Z,29.42
2018-07-31T08:34:00.044Z,29.50
2018-07-31T08:36:28.168Z,29.63
2018-07-31T08:38:56.303Z,29.76
2018-07-31T08:41:24.461Z,29.81
2018-07-31T08:43:52.431Z,29.88
2018-07-31T08:46:20.530Z,30.10
2018-07-31T08:48:48.599Z,30.18
2018-07-31T08:51:16.730Z,30.23
2018-07-31T08:53:44.717Z,30.28
2018-07-31T08:56:12.793Z,30.45
2018-07-31T08:58:41.409Z,30.46
2018-07-31T09:01:09.451Z,30.58
2018-07-31T09:03:37.536Z,30.54
2018-07-31T09:06:05.930Z,30.55
2018-07-31T09:08:34.016Z,30.64
2018-07-31T09:11:02.032Z,30.67
2018-07-31T09:13:30.200Z,30.69
2018-07-31T09:15:58.459Z,30.86
2018-07-31T09:18:26.678Z,30.86
2018-07-31T09:20:54.827Z,30.94
2018-07-31T09:23:22.991Z,30.96
2018-07-31T09:25:51.968Z,30.95
2018-07-31T09:28:20.143Z,31.20
2018-07-31T09:30:54.230Z,31.17
2018-07-31T09:33:22.343Z,31.21
2018-07-31T09:35:50.507Z,31.34
2018-07-31T09:38:18.668Z,31.31
2018-07-31T09:40:46.847Z,31.48
2018-07-31T09:43:15.031Z,31.56
2018-07-31T09:45:43.217Z,31.57
2018-07-31T09:48:11.405Z,31.72
2018-07-31T09:50:39.596Z,31.72
2018-07-31T09:53:07.787Z,31.78
2018-07-31T09:55:36.060Z,31.88
2018-07-31T09:58:04.239Z,31.80
2018-07-31T10:00:37.704Z,31.96
2018-07-31T10:03:06.118Z,32.03
2018-07-31T10:05:35.471Z,32.17
2018-07-31T10:08:03.657Z,32.18
2018-07-31T10:10:31.899Z,32.15
2018-07-31T10:13:00.732Z,32.27
2018-07-31T10:15:29.768Z,32.47
2018-07-31T10:17:58.074Z,32.48
2018-07-31T10:20:26.264Z,32.53
2018-07-31T10:22:58.789Z,32.66
2018-07-31T10:25:27.601Z,32.71
2018-07-31T10:27:55.795Z,32.78
2018-07-31T10:30:24.093Z,32.89
2018-07-31T10:32:52.821Z,32.94
2018-07-31T10:35:21.413Z,33.01
2018-07-31T10:37:49.634Z,33.10
2018-07-31T10:40:17.900Z,33.07
2018-07-31T10:42:46.117Z,33.04
2018-07-31T10:45:14.603Z,33.07
2018-07-31T10:47:42.807Z,33.00
2018-07-31T10:50:10.984Z,33.04
2018-07-31T10:52:39.152Z,33.30
2018-07-31T10:55:07.428Z,33.28
2018-07-31T10:57:35.523Z,33.18
2018-07-31T11:00:05.124Z,33.22
2018-07-31T11:02:35.032Z,33.41
2018-07-31T11:05:15.063Z,33.53
2018-07-31T11:07:43.252Z,33.58
2018-07-31T11:10:11.676Z,33.57
2018-07-31T11:12:39.908Z,33.47
2018-07-31T11:15:08.096Z,33.46
2018-07-31T11:17:36.588Z,33.66
2018-07-31T11:20:06.699Z,33.85
2018-07-31T11:22:35.068Z,34.00
2018-07-31T11:25:07.390Z,33.94
2018-07-31T11:27:36.200Z,34.07
2018-07-31T11:30:04.929Z,34.34
2018-07-31T11:32:33.015Z,34.55
2018-07-31T11:35:01.083Z,34.59
2018-07-31T11:37:29.143Z,34.66
2018-07-31T11:39:57.224Z,34.52
2018-07-31T11:42:25.265Z,34.41
2018-07-31T11:44:53.360Z,34.32
2018-07-31T11:47:21.418Z,34.05
2018-07-31T11:49:49.586Z,34.08
2018-07-31T11:52:17.643Z,34.15
2018-07-31T11:54:45.729Z,34.15
2018-07-31T11:57:13.798Z,34.00
2018-07-31T11:59:41.851Z,34.02
2018-07-31T12:02:09.914Z,34.09
2018-07-31T12:04:38.084Z,33.90
2018-07-31T12:07:06.142Z,33.89
2018-07-31T12:09:34.191Z,33.86
2018-07-31T12:12:02.246Z,34.19
2018-07-31T12:14:30.322Z,34.49
2018-07-31T12:16:59.359Z,34.63
2018-07-31T12:19:36.769Z,34.98
2018-07-31T12:22:04.861Z,35.10
2018-07-31T12:24:33.660Z,35.10
2018-07-31T12:27:09.142Z,35.09
2018-07-31T12:32:38.467Z,35.31
2018-07-31T12:35:06.539Z,35.35
2018-07-31T12:37:34.743Z,35.47
2018-07-31T12:40:03.169Z,35.38
2018-07-31T12:42:31.364Z,35.40
2018-07-31T12:44:59.571Z,35.52
2018-07-31T12:47:28.593Z,35.73
2018-07-31T12:49:58.447Z,35.95
2018-07-31T12:52:27.796Z,36.02
2018-07-31T12:55:20.411Z,35.59
2018-07-31T12:57:49.107Z,35.53
2018-07-31T13:00:20.137Z,35.76
2018-07-31T13:02:48.308Z,35.86
2018-07-31T13:05:16.420Z,35.95
2018-07-31T13:07:44.530Z,35.93
2018-07-31T13:10:12.608Z,35.80
2018-07-31T13:12:40.776Z,35.88
2018-07-31T13:15:08.923Z,35.72
2018-07-31T13:17:36.990Z,35.53
2018-07-31T13:20:05.073Z,35.39
2018-07-31T13:22:33.290Z,35.12
2018-07-31T13:25:01.980Z,35.09
2018-07-31T13:27:30.071Z,35.18
2018-07-31T13:29:58.160Z,35.01
2018-07-31T13:32:26.202Z,34.92
2018-07-31T13:34:54.288Z,35.17
2018-07-31T13:37:22.367Z,35.31
2018-07-31T13:39:50.888Z,35.20
2018-07-31T13:42:18.947Z,35.41
2018-07-31T13:44:47.002Z,35.65
2018-07-31T13:47:15.052Z,35.99
2018-07-31T13:49:43.127Z,35.86
2018-07-31T13:52:11.177Z,36.07
2018-07-31T13:54:39.247Z,36.04
2018-07-31T13:57:07.313Z,36.04
2018-07-31T13:59:35.387Z,36.24
2018-07-31T14:02:03.502Z,36.28
2018-07-31T14:04:31.571Z,36.39
2018-07-31T14:06:59.639Z,36.33
2018-07-31T14:09:27.719Z,36.09
2018-07-31T14:11:55.777Z,36.11
2018-07-31T14:14:23.840Z,36.28
2018-07-31T14:16:51.910Z,36.09
2018-07-31T14:19:20.176Z,35.92
2018-07-31T14:21:48.230Z,35.46
2018-07-31T14:24:16.327Z,35.49
2018-07-31T14:26:44.515Z,35.59
2018-07-31T14:29:12.570Z,35.61
2018-07-31T14:31:40.809Z,35.56
2018-07-31T14:34:08.862Z,35.62
2018-07-31T14:36:36.967Z,35.63
2018-07-31T14:39:06.947Z,35.61
2018-07-31T14:41:35.028Z,35.92
2018-07-31T14:44:03.107Z,35.83
2018-07-31T14:46:31.189Z,36.01
2018-07-31T14:48:59.254Z,36.07
2018-07-31T14:51:27.328Z,36.08
2018-07-31T14:53:55.441Z,36.05
2018-07-31T14:56:23.506Z,36.04
2018-07-31T14:58:51.578Z,36.13
2018-07-31T15:01:19.672Z,36.20
2018-07-31T15:03:47.755Z,36.18
2018-07-31T15:06:15.858Z,36.19
2018-07-31T15:08:43.999Z,36.00
2018-07-31T15:11:12.099Z,35.95
2018-07-31T15:13:40.671Z,35.81
2018-07-31T15:16:08.778Z,35.62
2018-07-31T15:18:36.853Z,35.54
2018-07-31T15:21:04.957Z,35.49
2018-07-31T15:23:34.518Z,35.43
2018-07-31T15:26:02.676Z,35.39
2018-07-31T15:28:30.863Z,35.46
2018-07-31T15:30:59.047Z,35.47
2018-07-31T15:33:27.199Z,35.62
2018-07-31T15:35:55.699Z,35.66
2018-07-31T15:38:25.107Z,35.76
2018-07-31T15:40:53.253Z,35.91
2018-07-31T15:43:21.334Z,35.99
2018-07-31T15:45:49.422Z,36.00
2018-07-31T15:48:17.478Z,36.05
2018-07-31T15:50:45.563Z,36.09
2018-07-31T15:53:13.640Z,36.19
2018-07-31T15:55:41.698Z,36.29
2018-07-31T15:58:09.883Z,36.33
2018-07-31T16:00:38.109Z,36.58
2018-07-31T16:03:06.247Z,36.63
2018-07-31T16:05:34.351Z,36.68
2018-07-31T16:08:02.467Z,36.77
2018-07-31T16:10:30.570Z,36.71
2018-07-31T16:12:58.705Z,36.22
2018-07-31T16:15:26.787Z,36.02
2018-07-31T16:17:54.864Z,35.65
2018-07-31T16:20:22.915Z,35.86
2018-07-31T16:22:51.040Z,35.73
2018-07-31T16:25:19.063Z,35.41
2018-07-31T16:27:47.121Z,35.34
2018-07-31T16:30:15.183Z,35.25
2018-07-31T16:32:43.313Z,34.81
2018-07-31T16:35:11.667Z,34.65
2018-07-31T16:37:39.720Z,34.62
2018-07-31T16:40:07.794Z,34.62
2018-07-31T16:42:36.269Z,34.75
2018-07-31T16:45:04.379Z,34.56
2018-07-31T16:47:32.435Z,34.47
2018-07-31T16:50:00.530Z,34.59
2018-07-31T16:52:28.627Z,34.76
2018-07-31T16:54:57.668Z,34.52
2018-07-31T16:57:25.736Z,34.61
2018-07-31T16:59:53.783Z,34.40
2018-07-31T17:02:21.843Z,34.51
2018-07-31T17:04:49.930Z,34.78
2018-07-31T17:07:18.014Z,34.49
2018-07-31T17:09:47.408Z,34.55
2018-07-31T17:12:16.449Z,34.61
2018-07-31T17:14:44.719Z,34.48
2018-07-31T17:17:13.394Z,34.61
2018-07-31T17:19:41.453Z,34.49
2018-07-31T17:22:09.515Z,34.70
2018-07-31T17:24:37.577Z,34.89
2018-07-31T17:27:05.674Z,35.00
2018-07-31T17:29:33.727Z,35.29
2018-07-31T17:32:01.815Z,35.28
2018-07-31T17:34:29.876Z,35.51
2018-07-31T17:36:57.938Z,35.37
2018-07-31T17:39:26.023Z,35.38
2018-07-31T17:42:04.922Z,35.41
2018-07-31T17:50:36.056Z,35.06
2018-07-31T17:53:04.458Z,34.25
2018-07-31T17:55:36.573Z,34.03
2018-07-31T17:58:17.740Z,33.74
2018-07-31T18:01:05.796Z,33.39
2018-07-31T18:09:56.172Z,32.56
2018-07-31T18:12:43.391Z,32.39
2018-07-31T18:18:26.002Z,32.09
2018-07-31T18:21:16.349Z,31.89
2018-07-31T18:27:07.651Z,31.81
2018-07-31T18:39:45.813Z,31.67
2018-07-31T18:42:47.161Z,31.01
2018-07-31T18:49:04.843Z,30.69
2018-07-31T18:52:25.999Z,30.54
2018-07-31T19:01:45.771Z,30.13
2018-07-31T19:17:32.620Z,29.52
2018-07-31T19:20:13.159Z,29.36
2018-07-31T19:23:24.712Z,29.31
2018-07-31T19:25:53.549Z,29.80
2018-07-31T19:28:21.756Z,29.89
2018-07-31T19:30:49.907Z,29.78
2018-07-31T19:33:18.097Z,29.93
2018-07-31T19:35:47.206Z,30.07
2018-07-31T19:38:15.443Z,30.15
2018-07-31T19:40:43.814Z,30.10
2018-07-31T19:43:11.960Z,30.10
2018-07-31T19:45:40.048Z,29.92
2018-07-31T19:48:08.360Z,30.07
2018-07-31T19:50:36.527Z,30.01
2018-07-31T19:53:04.692Z,30.00
2018-07-31T19:55:32.750Z,29.95
2018-07-31T19:58:00.832Z,29.94
2018-07-31T20:00:28.905Z,29.91
2018-07-31T20:02:57.165Z,29.79
2018-07-31T20:05:25.385Z,29.78
2018-07-31T20:07:53.592Z,29.80
2018-07-31T20:10:21.718Z,29.57
2018-07-31T20:12:51.103Z,29.68
2018-07-31T20:15:19.462Z,29.70
2018-07-31T20:17:47.750Z,29.63
2018-07-31T20:20:16.103Z,29.63
2018-07-31T20:22:44.345Z,29.66
2018-07-31T20:25:12.564Z,29.64
2018-07-31T20:27:40.748Z,29.43
2018-07-31T20:30:08.955Z,29.46
2018-07-31T20:32:37.195Z,29.38
2018-07-31T20:35:05.408Z,29.21
2018-07-31T20:37:33.791Z,29.35
2018-07-31T20:40:02.879Z,29.22
2018-07-31T20:42:31.239Z,29.21
2018-07-31T20:45:00.557Z,29.19
2018-07-31T20:47:28.767Z,29.13
2018-07-31T20:49:57.047Z,29.13
2018-07-31T20:52:25.264Z,29.09
2018-07-31T20:54:53.469Z,29.06
2018-07-31T20:57:21.656Z,29.05
2018-07-31T20:59:49.908Z,28.98
2018-07-31T21:02:18.051Z,28.89
2018-07-31T21:04:46.220Z,28.92
2018-07-31T21:07:15.018Z,28.77
2018-07-31T21:09:43.117Z,28.56
2018-07-31T21:12:11.282Z,28.70
2018-07-31T21:14:39.472Z,28.67
2018-07-31T21:17:07.598Z,28.72
2018-07-31T21:19:35.852Z,28.70
2018-07-31T21:22:04.142Z,28.59
2018-07-31T21:24:32.640Z,28.56
2018-07-31T21:27:00.766Z,28.32
2018-07-31T21:29:29.139Z,28.31
2018-07-31T21:31:57.295Z,28.45
2018-07-31T21:34:25.459Z,28.32
2018-07-31T21:36:53.650Z,28.40
2018-07-31T21:39:21.844Z,28.18
2018-07-31T21:41:49.964Z,28.24
2018-07-31T21:44:18.116Z,28.04
2018-07-31T21:46:46.281Z,28.16
2018-07-31T21:49:14.857Z,28.28
2018-07-31T21:51:42.982Z,28.30
2018-07-31T21:54:11.230Z,28.26
2018-07-31T21:56:39.941Z,28.17
2018-07-31T21:59:12.827Z,28.22
2018-07-31T22:01:41.093Z,28.34
2018-07-31T22:04:09.257Z,28.31
2018-07-31T22:06:38.540Z,28.07
2018-07-31T22:09:08.057Z,27.96
2018-07-31T22:11:37.904Z,28.16
2018-07-31T22:14:07.142Z,28.05
2018-07-31T22:16:36.138Z,28.23
2018-07-31T22:26:58.990Z,28.20
2018-07-31T22:29:27.145Z,28.28
2018-07-31T22:31:55.228Z,28.22
2018-07-31T22:34:23.300Z,28.29
2018-07-31T22:36:51.566Z,28.23
2018-07-31T22:39:19.640Z,28.14
2018-07-31T22:41:47.693Z,28.21
2018-07-31T22:44:15.783Z,28.36
2018-07-31T22:46:43.854Z,28.23
2018-07-31T22:49:11.912Z,28.29
2018-07-31T22:51:39.967Z,28.21
2018-07-31T22:54:08.051Z,28.24
2018-07-31T22:56:36.159Z,28.34
2018-07-31T22:59:04.212Z,28.28
2018-07-31T23:01:32.520Z,28.24
2018-07-31T23:04:00.591Z,28.25
2018-07-31T23:06:28.632Z,28.17
2018-07-31T23:08:56.734Z,28.17
2018-07-31T23:11:25.574Z,28.12
2018-07-31T23:13:53.632Z,28.05
2018-07-31T23:16:21.697Z,28.13
2018-07-31T23:30:28.015Z,27.96
2018-07-31T23:32:56.086Z,27.95
2018-07-31T23:35:24.186Z,28.04
2018-07-31T23:37:52.389Z,27.99
2018-07-31T23:40:20.426Z,28.02
2018-07-31T23:42:48.537Z,27.91
2018-07-31T23:45:16.624Z,27.80
2018-07-31T23:47:44.701Z,27.81
2018-07-31T23:50:12.799Z,27.91
2018-07-31T23:52:40.884Z,27.91
2018-07-31T23:55:08.987Z,27.83
2018-07-31T23:57:37.038Z,27.80
